Time;durP1;ratioP1;P1;durP2;ratioP2;P2;SDS_P1;SDS_P2;PMS_P1;PMS_P2;Temp;Humidity;BMP_temperature;BMP_pressure;BME280_temperature;BME280_humidity;BME280_pressure;Samples;Min_cycle;Max_cycle;Signal;HPM_P1;HPM_P2
2022/05/07 00:01:38;;;;;;;2.25;2.05;;;12.70;99.90;;;;;;4949390;28;20035;-89
2022/05/07 00:04:04;;;;;;;2.33;2.13;;;12.70;99.90;;;;;;4945251;28;20042;-88
2022/05/07 00:06:29;;;;;;;2.70;1.90;;;12.60;99.90;;;;;;4948184;28;20141;-88
2022/05/07 00:08:55;;;;;;;2.55;1.88;;;12.60;99.90;;;;;;4946896;28;20033;-89
2022/05/07 00:11:21;;;;;;;2.10;1.90;;;12.50;99.90;;;;;;4942959;29;20199;-88
2022/05/07 00:13:51;;;;;;;3.30;2.05;;;12.40;99.90;;;;;;4938539;29;20118;-88
2022/05/07 00:19:01;;;;;;;1.88;1.67;;;12.30;99.90;;;;;;4955947;29;20058;-89
2022/05/07 00:21:27;;;;;;;2.10;1.80;;;12.20;99.90;;;;;;4938857;29;20118;-89
2022/05/07 00:23:53;;;;;;;2.97;2.20;;;12.10;99.90;;;;;;4935204;29;20538;-90
2022/05/07 00:26:19;;;;;;;2.13;1.92;;;12.10;99.90;;;;;;4936067;29;20126;-89
2022/05/07 00:28:45;;;;;;;2.50;1.85;;;12.00;99.90;;;;;;4937369;29;20064;-89
2022/05/07 00:31:11;;;;;;;4.65;2.15;;;12.00;99.90;;;;;;4935878;29;20028;-89
2022/05/07 00:33:37;;;;;;;3.58;1.70;;;11.90;99.90;;;;;;4935610;29;20028;-89
2022/05/07 00:36:03;;;;;;;2.35;1.70;;;11.90;99.90;;;;;;4936268;29;20500;-89
2022/05/07 00:38:29;;;;;;;2.45;1.67;;;11.90;99.90;;;;;;4936815;29;20027;-89
2022/05/07 00:40:55;;;;;;;3.35;1.70;;;11.90;99.90;;;;;;4920453;29;20068;-89
2022/05/07 00:43:20;;;;;;;5.50;1.73;;;11.90;99.90;;;;;;4920376;29;20031;-89
2022/05/07 00:45:47;;;;;;;2.92;1.65;;;11.90;99.90;;;;;;4920341;29;20403;-89
2022/05/07 00:48:16;;;;;;;5.57;1.80;;;11.80;99.90;;;;;;4921140;29;20031;-90
2022/05/07 00:53:27;;;;;;;5.32;1.60;;;11.70;99.90;;;;;;4938853;29;20034;-90
2022/05/07 00:55:53;;;;;;;3.72;2.10;;;11.60;99.90;;;;;;4921422;29;20046;-90
2022/05/07 00:58:19;;;;;;;6.97;2.05;;;11.60;99.90;;;;;;4919869;29;20079;-89
2022/05/07 01:00:45;;;;;;;6.95;1.50;;;11.50;99.90;;;;;;4920084;29;20071;-89
2022/05/07 01:03:11;;;;;;;5.93;2.05;;;11.50;99.90;;;;;;4920171;29;20442;-89
2022/05/07 01:05:39;;;;;;;5.60;2.22;;;11.40;99.90;;;;;;4919985;29;20067;-89
2022/05/07 01:08:06;;;;;;;2.40;1.80;;;11.40;99.90;;;;;;4935140;29;20034;-88
2022/05/07 01:10:32;;;;;;;5.15;1.50;;;11.30;99.90;;;;;;4935451;29;20043;-89
2022/05/07 01:12:58;;;;;;;3.50;1.90;;;11.20;99.90;;;;;;4935684;29;20031;-89
2022/05/07 01:15:24;;;;;;;2.90;1.80;;;11.20;99.90;;;;;;4935599;29;20062;-89
2022/05/07 01:17:50;;;;;;;3.70;1.88;;;11.10;99.90;;;;;;4919525;29;20482;-88
2022/05/07 01:20:17;;;;;;;6.78;2.55;;;11.10;99.90;;;;;;4919456;29;20098;-89
2022/05/07 01:22:44;;;;;;;5.25;2.10;;;11.00;99.90;;;;;;4928920;29;20078;-87
2022/05/07 01:25:10;;;;;;;5.65;1.98;;;11.00;99.90;;;;;;4938218;29;20507;-88
2022/05/07 01:27:35;;;;;;;3.75;2.22;;;11.00;99.90;;;;;;4938398;29;20110;-88
2022/05/07 01:30:01;;;;;;;4.20;1.95;;;10.90;99.90;;;;;;4938391;29;20140;-87
2022/05/07 01:32:27;;;;;;;7.20;2.20;;;10.90;99.90;;;;;;4938050;29;20077;-89
2022/05/07 01:34:53;;;;;;;5.07;1.92;;;10.80;99.90;;;;;;4938571;29;20560;-90
2022/05/07 01:37:20;;;;;;;3.53;1.60;;;10.80;99.90;;;;;;4938419;29;20043;-90
2022/05/07 01:39:46;;;;;;;4.35;1.60;;;10.80;99.90;;;;;;4938300;29;20117;-90
2022/05/07 01:42:12;;;;;;;6.78;2.45;;;10.70;99.90;;;;;;4938410;29;20035;-90
2022/05/07 01:44:38;;;;;;;5.00;2.22;;;10.70;99.90;;;;;;4938070;28;20061;-90
2022/05/07 01:49:49;;;;;;;6.72;1.90;;;10.50;99.90;;;;;;4958975;29;20050;-89
2022/05/07 01:52:15;;;;;;;4.50;2.17;;;10.50;99.90;;;;;;4941546;29;20114;-89
2022/05/07 01:54:41;;;;;;;3.03;2.03;;;10.40;99.90;;;;;;4941287;29;20151;-89
2022/05/07 01:57:08;;;;;;;8.82;2.30;;;10.30;99.90;;;;;;4941492;29;20035;-90
2022/05/07 01:59:34;;;;;;;7.55;2.22;;;10.30;99.90;;;;;;4941432;29;20045;-89
2022/05/07 02:01:59;;;;;;;6.13;2.40;;;10.30;99.90;;;;;;4941626;29;20106;-89
2022/05/07 02:04:25;;;;;;;7.47;2.40;;;10.20;99.90;;;;;;4941841;29;20541;-89
2022/05/07 02:06:52;;;;;;;4.22;2.33;;;10.20;99.90;;;;;;4941860;29;20031;-89
2022/05/07 02:09:18;;;;;;;9.48;2.28;;;10.20;99.90;;;;;;4941309;29;20147;-89
2022/05/07 02:11:44;;;;;;;11.10;2.38;;;10.10;99.90;;;;;;4941689;29;20031;-89
2022/05/07 02:14:10;;;;;;;8.18;2.67;;;10.10;99.90;;;;;;4941480;29;20106;-89
2022/05/07 02:16:36;;;;;;;6.28;2.33;;;10.10;99.90;;;;;;4941594;29;20061;-88
2022/05/07 02:19:02;;;;;;;3.80;2.05;;;10.00;99.90;;;;;;4941544;29;20051;-88
2022/05/07 02:21:28;;;;;;;10.82;3.10;;;9.90;99.90;;;;;;4941417;29;20404;-89
2022/05/07 02:23:53;;;;;;;4.07;2.10;;;9.90;99.90;;;;;;4941384;29;20098;-89
2022/05/07 02:26:19;;;;;;;2.95;1.80;;;9.90;99.90;;;;;;4941733;29;20038;-90
2022/05/07 02:28:45;;;;;;;9.15;2.28;;;9.80;99.90;;;;;;4941172;29;20028;-89
2022/05/07 02:31:10;;;;;;;7.20;2.60;;;9.80;99.90;;;;;;4958354;29;20031;-88
2022/05/07 02:33:36;;;;;;;6.57;2.47;;;9.80;99.90;;;;;;4941746;29;20103;-88
2022/05/07 02:36:02;;;;;;;5.90;2.20;;;9.70;99.90;;;;;;4941877;29;20057;-89
2022/05/07 02:38:27;;;;;;;5.50;2.13;;;9.70;99.90;;;;;;4941403;29;20366;-89
2022/05/07 02:43:37;;;;;;;4.30;2.42;;;9.60;99.90;;;;;;4958641;29;20306;-88
2022/05/07 02:46:03;;;;;;;5.88;2.13;;;9.50;99.90;;;;;;4958185;29;20035;-88
2022/05/07 02:48:29;;;;;;;4.25;2.47;;;9.50;99.90;;;;;;4940941;29;20023;-88
2022/05/07 02:50:54;;;;;;;5.93;2.15;;;9.40;99.90;;;;;;4940823;29;20027;-88
2022/05/07 02:53:20;;;;;;;7.63;2.58;;;9.40;99.90;;;;;;4940933;29;20066;-88
2022/05/07 02:55:46;;;;;;;9.75;2.15;;;9.30;99.90;;;;;;4940693;29;20078;-88
2022/05/07 02:58:12;;;;;;;4.72;2.20;;;9.20;99.90;;;;;;4940514;29;20023;-88
2022/05/07 03:00:37;;;;;;;4.97;2.40;;;9.20;99.90;;;;;;4940820;29;20044;-88
2022/05/07 03:03:03;;;;;;;5.93;2.63;;;9.20;99.90;;;;;;4940470;29;20050;-89
2022/05/07 03:05:29;;;;;;;12.65;3.00;;;9.20;99.90;;;;;;4940604;29;20031;-88
2022/05/07 03:07:58;;;;;;;5.72;2.50;;;9.10;99.90;;;;;;4940662;29;20065;-88
2022/05/07 03:10:23;;;;;;;5.60;2.30;;;9.10;99.90;;;;;;4925179;29;20031;-88
2022/05/07 03:12:49;;;;;;;4.20;2.10;;;9.10;99.90;;;;;;4940249;29;20031;-88
2022/05/07 03:15:15;;;;;;;5.32;2.45;;;9.00;99.90;;;;;;4957423;29;20339;-88
2022/05/07 03:17:40;;;;;;;4.13;2.45;;;9.00;99.90;;;;;;4940342;29;20035;-88
2022/05/07 03:20:09;;;;;;;8.73;2.55;;;9.00;99.90;;;;;;4939960;29;20482;-88
2022/05/07 03:22:36;;;;;;;6.55;3.03;;;8.90;99.90;;;;;;4939804;29;20043;-89
2022/05/07 03:25:01;;;;;;;6.97;2.75;;;8.90;99.90;;;;;;4940261;29;20620;-88
2022/05/07 03:27:29;;;;;;;8.07;2.47;;;8.90;99.90;;;;;;4940608;29;20054;-88
2022/05/07 03:29:55;;;;;;;6.60;2.50;;;8.90;99.90;;;;;;4939785;29;20062;-88
2022/05/07 03:32:20;;;;;;;7.82;2.30;;;8.90;99.90;;;;;;4939895;29;20031;-88
2022/05/07 03:34:46;;;;;;;6.30;2.47;;;8.90;99.90;;;;;;4939862;29;20461;-89
2022/05/07 03:37:12;;;;;;;7.97;2.45;;;8.80;99.90;;;;;;4940046;29;20045;-88
2022/05/07 03:39:37;;;;;;;4.25;2.40;;;8.80;99.90;;;;;;4939553;29;20168;-88
2022/05/07 03:42:03;;;;;;;5.72;2.50;;;8.80;99.90;;;;;;4940055;29;20027;-88
2022/05/07 03:44:29;;;;;;;9.93;2.70;;;8.80;99.90;;;;;;4940198;29;20114;-87
2022/05/07 03:46:55;;;;;;;9.20;2.35;;;8.80;99.90;;;;;;4939592;29;20507;-88
2022/05/07 03:49:20;;;;;;;9.45;2.58;;;8.80;99.90;;;;;;4939627;29;20123;-88
2022/05/07 03:54:30;;;;;;;9.80;3.05;;;8.80;99.90;;;;;;4957004;29;20098;-88
2022/05/07 03:56:56;;;;;;;6.95;2.33;;;8.80;99.90;;;;;;4939236;29;20023;-87
2022/05/07 03:59:22;;;;;;;3.63;2.17;;;8.80;99.90;;;;;;4948860;28;20042;-87
2022/05/07 04:01:47;;;;;;;4.32;2.30;;;8.70;99.90;;;;;;4958639;28;20026;-90
2022/05/07 04:04:13;;;;;;;6.40;2.30;;;8.70;99.90;;;;;;4958528;28;20392;-87
2022/05/07 04:06:39;;;;;;;8.32;2.58;;;8.70;99.90;;;;;;4958464;28;20034;-87
2022/05/07 04:09:05;;;;;;;7.47;2.45;;;8.70;99.90;;;;;;4957929;28;20019;-89
2022/05/07 04:11:30;;;;;;;8.77;2.40;;;8.60;99.90;;;;;;4958504;28;20496;-91
2022/05/07 04:13:56;;;;;;;11.30;2.55;;;8.60;99.90;;;;;;4958775;28;20052;-87
2022/05/07 04:16:21;;;;;;;3.55;2.25;;;8.60;99.90;;;;;;4958561;28;20022;-87
2022/05/07 04:18:47;;;;;;;6.63;2.30;;;8.60;99.90;;;;;;4958759;28;20050;-90
2022/05/07 04:21:13;;;;;;;9.88;3.40;;;8.50;99.90;;;;;;4958828;28;20039;-90
2022/05/07 04:23:38;;;;;;;4.95;2.58;;;8.50;99.90;;;;;;4959550;28;20043;-90
2022/05/07 04:26:04;;;;;;;7.60;2.03;;;8.50;99.90;;;;;;4959843;28;20035;-88
2022/05/07 04:28:30;;;;;;;7.63;2.33;;;8.40;99.90;;;;;;4959500;28;20031;-87
2022/05/07 04:30:56;;;;;;;5.55;2.67;;;8.40;99.90;;;;;;4959716;28;20042;-89
2022/05/07 04:33:23;;;;;;;9.20;2.40;;;8.40;99.90;;;;;;4962551;28;20034;-90
2022/05/07 04:35:49;;;;;;;5.70;2.42;;;8.40;99.90;;;;;;4966636;28;20100;-90
2022/05/07 04:38:15;;;;;;;11.43;2.47;;;8.40;99.90;;;;;;4963415;28;20113;-90
2022/05/07 04:40:41;;;;;;;4.50;2.15;;;8.30;99.90;;;;;;4965428;28;20061;-89
2022/05/07 04:43:06;;;;;;;7.18;2.40;;;8.30;99.90;;;;;;4967116;28;20027;-90
2022/05/07 04:45:34;;;;;;;6.65;2.20;;;8.40;99.90;;;;;;4976147;28;20039;-89
2022/05/07 04:47:59;;;;;;;6.07;2.45;;;8.30;99.90;;;;;;4982193;28;20039;-90
2022/05/07 04:50:25;;;;;;;6.10;2.35;;;8.30;99.90;;;;;;4968064;28;20034;-89
2022/05/07 04:52:51;;;;;;;7.07;2.10;;;8.30;99.90;;;;;;4961888;28;20038;-89
2022/05/07 04:55:16;;;;;;;5.45;2.05;;;8.30;99.90;;;;;;4961235;28;20026;-89
2022/05/07 04:57:42;;;;;;;6.90;2.22;;;8.30;99.90;;;;;;4960475;28;20027;-89
2022/05/07 05:00:08;;;;;;;3.28;2.05;;;8.20;99.90;;;;;;4960530;28;20041;-90
2022/05/07 05:02:34;;;;;;;5.25;2.05;;;8.20;99.90;;;;;;4960169;28;20027;-89
2022/05/07 05:05:00;;;;;;;3.67;2.05;;;8.20;99.90;;;;;;4959549;28;20030;-90
2022/05/07 05:07:26;;;;;;;5.22;2.03;;;8.20;99.90;;;;;;4960187;28;20090;-90
2022/05/07 05:09:51;;;;;;;4.13;1.80;;;8.20;99.90;;;;;;4959805;28;20483;-90
2022/05/07 05:12:20;;;;;;;3.58;1.90;;;8.20;99.90;;;;;;4959487;28;20050;-90
2022/05/07 05:15:04;;;;;;;2.67;1.80;;;8.20;99.90;;;;;;4959370;28;20077;-89
2022/05/07 05:17:34;;;;;;;8.23;2.40;;;8.10;99.90;;;;;;4959478;28;20500;-89
2022/05/07 05:20:05;;;;;;;5.07;2.00;;;8.10;99.90;;;;;;4958631;28;20098;-89
2022/05/07 05:22:31;;;;;;;5.90;2.20;;;8.10;99.90;;;;;;4959199;28;20047;-90
2022/05/07 05:24:57;;;;;;;4.93;2.10;;;8.00;99.90;;;;;;4959497;28;20113;-89
2022/05/07 05:27:23;;;;;;;7.25;2.47;;;8.00;99.90;;;;;;4958704;28;20027;-89
2022/05/07 05:29:49;;;;;;;5.32;2.28;;;8.00;99.90;;;;;;4958632;28;20026;-89
2022/05/07 05:32:18;;;;;;;4.82;2.05;;;8.00;99.90;;;;;;4958122;28;20113;-89
2022/05/07 05:34:53;;;;;;;5.13;1.92;;;7.90;99.90;;;;;;4958487;28;20483;-88
2022/05/07 05:37:19;;;;;;;3.38;2.03;;;7.90;99.90;;;;;;4958444;28;20038;-89
2022/05/07 05:39:45;;;;;;;2.90;2.00;;;7.90;99.90;;;;;;4975779;28;20049;-88
2022/05/07 05:42:12;;;;;;;6.25;2.22;;;7.80;99.90;;;;;;4958611;28;20022;-89
2022/05/07 05:44:41;;;;;;;4.88;2.13;;;7.90;99.90;;;;;;4958482;28;20042;-89
2022/05/07 05:47:08;;;;;;;5.18;2.30;;;7.90;99.90;;;;;;4959676;28;20480;-89
2022/05/07 05:49:34;;;;;;;4.63;1.95;;;7.90;99.90;;;;;;4957999;28;20146;-89
2022/05/07 05:52:08;;;;;;;6.20;2.67;;;8.00;99.90;;;;;;4957070;28;20030;-87
2022/05/07 05:54:35;;;;;;;5.50;1.92;;;8.00;99.90;;;;;;4958950;28;20093;-89
2022/05/07 05:57:01;;;;;;;4.07;2.00;;;8.00;99.90;;;;;;4958268;28;20026;-89
2022/05/07 05:59:27;;;;;;;9.20;2.30;;;8.10;99.90;;;;;;4958142;28;20050;-88
2022/05/07 06:01:54;;;;;;;4.53;2.20;;;8.10;99.90;;;;;;4958156;28;20023;-89
2022/05/07 06:04:19;;;;;;;6.00;2.00;;;8.10;99.90;;;;;;4958291;28;20019;-89
2022/05/07 06:06:45;;;;;;;4.68;2.30;;;8.10;99.90;;;;;;4958245;28;20082;-90
2022/05/07 06:09:11;;;;;;;2.60;1.75;;;8.20;99.90;;;;;;4958049;28;20058;-89
2022/05/07 06:11:37;;;;;;;6.47;2.10;;;8.20;99.90;;;;;;4958377;28;20035;-90
2022/05/07 06:14:02;;;;;;;3.60;1.92;;;8.30;99.90;;;;;;4958000;28;20031;-89
2022/05/07 06:16:29;;;;;;;3.95;2.00;;;8.40;99.90;;;;;;4958259;28;20054;-89
2022/05/07 06:18:55;;;;;;;2.25;1.90;;;8.50;99.90;;;;;;4952064;28;20471;-89
2022/05/07 06:21:21;;;;;;;5.35;2.28;;;8.60;99.90;;;;;;4964844;28;20043;-88
2022/05/07 06:23:47;;;;;;;3.20;1.70;;;8.60;99.90;;;;;;4948434;28;20047;-88
2022/05/07 06:28:58;;;;;;;4.82;1.88;;;8.70;99.90;;;;;;4961338;28;20054;-88
2022/05/07 06:31:24;;;;;;;4.28;2.22;;;8.80;99.90;;;;;;4946369;28;20031;-88
2022/05/07 06:33:50;;;;;;;4.50;1.92;;;8.90;99.90;;;;;;4949046;28;20479;-88
2022/05/07 06:36:15;;;;;;;3.35;1.50;;;9.00;99.90;;;;;;4948281;28;20019;-89
2022/05/07 06:38:41;;;;;;;2.67;1.60;;;9.10;99.90;;;;;;4966660;28;20058;-89
2022/05/07 06:41:07;;;;;;;1.83;1.52;;;9.10;99.90;;;;;;4952665;28;20058;-88
2022/05/07 06:43:34;;;;;;;3.47;1.45;;;9.20;99.90;;;;;;4966658;28;20035;-89
2022/05/07 06:46:01;;;;;;;2.60;1.60;;;9.30;99.90;;;;;;4951885;28;20035;-90
2022/05/07 06:48:27;;;;;;;2.88;1.70;;;9.40;99.90;;;;;;4949218;28;20027;-89
2022/05/07 06:50:53;;;;;;;2.88;1.60;;;9.50;99.90;;;;;;4946349;29;20037;-89
2022/05/07 06:53:19;;;;;;;1.95;1.40;;;9.50;99.90;;;;;;4941164;28;20500;-89
2022/05/07 06:56:03;;;;;;;1.75;1.60;;;9.60;99.90;;;;;;4941390;29;20481;-90
2022/05/07 06:58:32;;;;;;;3.10;1.40;;;9.70;99.90;;;;;;4941384;29;20027;-89
2022/05/07 07:01:01;;;;;;;4.60;1.20;;;9.80;99.90;;;;;;4941821;29;20588;-89
2022/05/07 07:03:27;;;;;;;2.63;1.35;;;9.90;99.90;;;;;;4942025;29;20031;-89
2022/05/07 07:05:55;;;;;;;4.68;1.67;;;9.90;99.90;;;;;;4941811;29;20031;-89
2022/05/07 07:08:21;;;;;;;2.58;1.60;;;10.00;99.90;;;;;;4942034;29;20027;-89
2022/05/07 07:10:48;;;;;;;6.03;1.77;;;10.10;99.90;;;;;;4954031;28;20180;-90
2022/05/07 07:13:16;;;;;;;5.30;2.05;;;10.10;99.90;;;;;;4971491;28;20026;-88
2022/05/07 07:15:41;;;;;;;4.25;1.20;;;10.20;99.90;;;;;;4957014;28;20022;-91
2022/05/07 07:18:11;;;;;;;6.80;2.10;;;10.30;99.90;;;;;;4944632;29;20031;-91
2022/05/07 07:20:41;;;;;;;4.35;1.70;;;10.40;99.90;;;;;;4941500;29;20039;-91
2022/05/07 07:23:11;;;;;;;3.17;1.42;;;10.40;99.90;;;;;;4946691;29;20118;-90
2022/05/07 07:25:37;;;;;;;4.72;1.58;;;10.50;99.90;;;;;;4952755;28;20403;-91
2022/05/07 07:28:03;;;;;;;2.63;1.35;;;10.60;99.90;;;;;;4952745;28;20050;-91
2022/05/07 07:30:29;;;;;;;4.93;1.63;;;10.70;99.90;;;;;;4957315;28;20035;-92
2022/05/07 07:32:55;;;;;;;6.75;1.70;;;10.80;99.90;;;;;;4960919;28;20027;-91
2022/05/07 07:35:20;;;;;;;2.85;1.30;;;11.00;99.90;;;;;;4977054;28;20035;-91
2022/05/07 07:37:46;;;;;;;5.00;1.77;;;11.10;99.90;;;;;;4961266;28;20449;-91
2022/05/07 07:40:13;;;;;;;3.28;1.60;;;11.20;99.90;;;;;;4955586;29;20047;-92
2022/05/07 07:42:41;;;;;;;4.10;1.80;;;11.40;99.90;;;;;;4942739;28;20023;-89
2022/05/07 07:47:59;;;;;;;8.05;1.65;;;11.70;99.90;;;;;;4967039;28;20506;-88
2022/05/07 07:50:29;;;;;;;3.85;1.90;;;11.80;99.90;;;;;;4958899;28;20042;-88
2022/05/07 07:52:57;;;;;;;5.50;2.03;;;11.90;99.90;;;;;;4959162;28;20106;-88
2022/05/07 07:55:26;;;;;;;3.83;1.50;;;12.00;99.90;;;;;;4957697;28;20117;-88
2022/05/07 07:57:56;;;;;;;4.22;1.70;;;12.10;99.90;;;;;;4950637;28;20062;-88
2022/05/07 08:00:23;;;;;;;6.72;2.08;;;12.30;99.90;;;;;;4946466;28;20397;-88
2022/05/07 08:02:55;;;;;;;7.07;1.83;;;12.40;99.90;;;;;;4950501;28;20020;-88
2022/05/07 08:05:29;;;;;;;4.95;1.50;;;12.50;99.90;;;;;;4956367;28;20027;-89
2022/05/07 08:13:24;;;;;;;5.35;1.70;;;12.90;99.90;;;;;;4965624;28;20098;-88
2022/05/07 08:15:50;;;;;;;4.40;1.50;;;13.00;99.90;;;;;;4949282;28;20058;-89
2022/05/07 08:18:16;;;;;;;7.30;2.08;;;13.20;99.90;;;;;;4951353;28;20110;-88
2022/05/07 08:20:43;;;;;;;7.95;1.52;;;13.30;99.90;;;;;;4947435;28;20061;-89
2022/05/07 08:23:09;;;;;;;10.45;2.08;;;13.40;99.90;;;;;;4948810;28;20039;-88
2022/05/07 08:25:35;;;;;;;6.32;1.73;;;13.60;99.90;;;;;;4947858;28;20093;-88
2022/05/07 08:28:01;;;;;;;4.30;1.60;;;13.70;99.90;;;;;;4966860;28;20030;-88
2022/05/07 08:30:27;;;;;;;5.00;1.67;;;13.90;99.90;;;;;;4947702;28;20027;-88
2022/05/07 08:32:53;;;;;;;4.05;1.75;;;14.00;99.90;;;;;;4949933;28;20019;-89
2022/05/07 08:35:19;;;;;;;8.35;1.95;;;14.20;99.90;;;;;;4952411;28;20031;-88
2022/05/07 08:37:45;;;;;;;7.30;2.00;;;14.30;99.90;;;;;;4952202;28;20034;-88
2022/05/07 08:40:14;;;;;;;4.68;1.60;;;14.40;99.90;;;;;;4950048;28;20031;-89
2022/05/07 08:42:40;;;;;;;8.05;2.03;;;14.40;99.90;;;;;;4946917;28;20163;-88
2022/05/07 08:45:06;;;;;;;3.97;1.60;;;14.50;99.90;;;;;;4947860;28;20136;-88
2022/05/07 08:47:32;;;;;;;5.38;1.80;;;14.60;99.90;;;;;;4946239;28;20023;-88
2022/05/07 08:49:58;;;;;;;8.32;1.65;;;14.80;99.90;;;;;;4949091;28;20499;-88
2022/05/07 08:52:26;;;;;;;6.60;1.85;;;14.90;99.90;;;;;;4946401;28;20023;-88
2022/05/07 08:54:53;;;;;;;4.75;1.60;;;15.10;99.90;;;;;;4947542;28;20031;-88
2022/05/07 08:57:19;;;;;;;6.32;1.88;;;15.20;99.90;;;;;;4946937;28;20062;-88
2022/05/07 08:59:50;;;;;;;4.25;1.40;;;15.30;99.90;;;;;;4946635;28;20117;-87
2022/05/07 09:02:16;;;;;;;5.25;1.77;;;15.50;99.90;;;;;;4970153;28;20440;-88
2022/05/07 09:04:56;;;;;;;5.07;1.35;;;15.60;99.90;;;;;;4945590;28;20126;-88
2022/05/07 09:07:22;;;;;;;7.47;1.40;;;15.80;99.90;;;;;;4947924;28;20023;-88
2022/05/07 09:09:50;;;;;;;6.28;1.50;;;16.00;99.90;;;;;;4944888;28;20042;-87
2022/05/07 09:12:28;;;;;;;5.75;1.50;;;16.10;99.90;;;;;;4965315;28;20083;-88
2022/05/07 09:15:01;;;;;;;2.72;1.52;;;16.30;99.90;;;;;;4951814;28;20023;-88
2022/05/07 09:17:27;;;;;;;6.32;1.80;;;16.50;99.90;;;;;;4950767;28;20122;-89
2022/05/07 09:19:53;;;;;;;12.10;2.05;;;16.50;99.90;;;;;;4955036;28;20062;-89
2022/05/07 09:22:19;;;;;;;3.38;1.17;;;16.50;99.90;;;;;;4951376;28;20047;-88
2022/05/07 09:24:53;;;;;;;5.60;1.50;;;16.40;99.70;;;;;;4952160;28;20053;-88
2022/05/07 09:27:19;;;;;;;7.82;1.60;;;16.30;99.40;;;;;;4946617;28;20027;-88
2022/05/07 09:29:45;;;;;;;4.57;1.38;;;16.20;99.70;;;;;;4948198;28;20026;-89
2022/05/07 09:32:16;;;;;;;5.32;1.60;;;16.20;99.80;;;;;;4946704;28;20023;-88
2022/05/07 09:37:39;;;;;;;4.43;1.60;;;16.20;99.20;;;;;;4962565;28;20049;-89
2022/05/07 09:40:10;;;;;;;4.22;1.58;;;16.20;99.10;;;;;;4940518;29;20031;-88
2022/05/07 09:42:36;;;;;;;6.45;1.73;;;16.20;98.70;;;;;;4945712;28;20024;-88
2022/05/07 09:45:06;;;;;;;4.32;1.65;;;16.10;98.60;;;;;;4946687;28;20540;-88
2022/05/07 09:47:32;;;;;;;10.32;2.25;;;16.20;98.60;;;;;;4948274;28;20053;-87
2022/05/07 09:57:30;;;;;;;5.35;1.20;;;16.40;97.40;;;;;;4965611;28;20027;-88
2022/05/07 09:58:17;;;;;;;5.65;1.75;;;16.50;96.10;;;;;;4963371;28;20429;-88
2022/05/07 10:01:08;;;;;;;4.85;1.95;;;16.50;95.50;;;;;;4946746;29;20090;-89
2022/05/07 10:03:42;;;;;;;5.90;1.65;;;16.70;95.30;;;;;;4943681;28;20031;-89
2022/05/07 10:06:11;;;;;;;7.13;2.15;;;16.80;94.70;;;;;;4967915;28;20031;-89
2022/05/07 10:08:58;;;;;;;7.75;2.30;;;16.90;94.50;;;;;;4969413;28;20027;-89
2022/05/07 10:11:24;;;;;;;9.10;2.28;;;17.00;94.50;;;;;;4968428;28;20027;-88
2022/05/07 10:13:55;;;;;;;7.68;2.50;;;16.90;94.20;;;;;;4949689;28;20019;-88
2022/05/07 10:16:23;;;;;;;5.07;2.10;;;16.90;94.30;;;;;;4948167;28;20039;-88
2022/05/07 10:18:49;;;;;;;6.95;2.08;;;16.80;94.40;;;;;;4945828;29;20042;-89
2022/05/07 10:21:17;;;;;;;4.65;1.83;;;16.80;94.60;;;;;;4952425;28;20027;-89
2022/05/07 10:23:57;;;;;;;4.70;2.08;;;16.80;94.60;;;;;;4954640;28;20051;-88
2022/05/07 10:26:43;;;;;;;6.07;2.50;;;16.90;94.60;;;;;;4960569;28;20034;-88
2022/05/07 10:29:41;;;;;;;10.23;2.10;;;16.90;94.60;;;;;;4960527;28;20027;-87
2022/05/07 10:32:07;;;;;;;5.65;1.92;;;17.20;94.30;;;;;;4939351;28;20481;-87
2022/05/07 10:34:33;;;;;;;5.15;2.17;;;17.40;94.10;;;;;;4959901;28;20042;-88
2022/05/07 10:37:08;;;;;;;5.70;1.95;;;17.70;93.80;;;;;;4960087;28;20031;-87
2022/05/07 10:39:36;;;;;;;6.53;1.90;;;17.90;93.20;;;;;;4957320;28;20113;-88
2022/05/07 10:42:14;;;;;;;7.80;2.45;;;18.10;92.60;;;;;;4954316;29;20042;-87
2022/05/07 10:44:42;;;;;;;3.45;1.88;;;18.20;91.80;;;;;;4940363;29;20023;-87
2022/05/07 10:47:15;;;;;;;4.78;1.95;;;18.40;91.60;;;;;;4957739;29;20125;-86
2022/05/07 10:49:51;;;;;;;9.45;1.90;;;18.50;91.20;;;;;;4940105;29;20405;-88
2022/05/07 10:52:28;;;;;;;7.10;2.00;;;18.60;90.70;;;;;;4945837;28;20035;-87
2022/05/07 10:55:04;;;;;;;6.15;2.20;;;18.70;90.40;;;;;;4956379;28;20066;-87
2022/05/07 10:57:48;;;;;;;7.88;2.55;;;18.80;89.90;;;;;;4959154;28;20518;-87
2022/05/07 11:00:22;;;;;;;5.88;1.90;;;18.80;88.90;;;;;;4953505;28;20030;-86
2022/05/07 11:02:50;;;;;;;7.45;2.30;;;18.90;88.30;;;;;;4956989;28;20022;-86
2022/05/07 11:05:27;;;;;;;8.90;2.50;;;18.90;88.00;;;;;;4944068;29;20031;-86
2022/05/07 11:08:02;;;;;;;9.10;2.03;;;19.10;87.80;;;;;;4939887;29;20515;-86
2022/05/07 11:10:28;;;;;;;4.88;2.10;;;19.20;87.20;;;;;;4939673;29;20122;-87
2022/05/07 11:13:06;;;;;;;9.00;2.80;;;19.40;86.70;;;;;;4940063;29;20086;-87
2022/05/07 11:15:32;;;;;;;4.72;2.05;;;19.50;85.60;;;;;;4939680;29;20081;-86
2022/05/07 11:17:57;;;;;;;4.45;2.10;;;19.60;84.80;;;;;;4938444;29;20035;-87
2022/05/07 11:20:32;;;;;;;5.85;2.22;;;19.70;84.00;;;;;;4956214;29;20102;-85
2022/05/07 11:23:03;;;;;;;4.75;2.20;;;19.70;83.30;;;;;;4939325;29;20059;-88
2022/05/07 11:25:30;;;;;;;10.82;2.05;;;19.80;82.20;;;;;;4939309;29;20063;-87
2022/05/07 11:27:57;;;;;;;6.60;2.08;;;19.90;82.00;;;;;;4939057;28;20027;-88
2022/05/07 11:30:23;;;;;;;5.20;2.05;;;20.00;81.70;;;;;;4942156;28;20544;-88
2022/05/07 11:32:50;;;;;;;8.70;2.53;;;20.10;81.20;;;;;;4957188;28;20031;-87
2022/05/07 11:35:16;;;;;;;4.75;2.47;;;20.10;80.40;;;;;;4957871;28;20117;-88
2022/05/07 11:37:46;;;;;;;6.55;2.38;;;20.20;79.80;;;;;;4958018;28;20699;-88
2022/05/07 11:40:25;;;;;;;5.88;2.10;;;20.40;79.40;;;;;;4959014;28;20031;-88
2022/05/07 11:45:25;;;;;;;5.88;2.22;;;20.60;78.90;;;;;;4959572;28;20027;-88
2022/05/07 11:45:37;;;;;;;7.32;2.58;;;20.80;77.80;;;;;;4970653;28;20042;-87
2022/05/07 11:48:14;;;;;;;5.68;2.22;;;21.00;76.80;;;;;;4953653;28;20027;-88
2022/05/07 11:50:54;;;;;;;8.02;2.20;;;21.30;76.20;;;;;;4945007;28;20035;-87
2022/05/07 11:53:22;;;;;;;6.55;2.00;;;21.60;74.70;;;;;;4971644;28;20037;-89
2022/05/07 11:55:50;;;;;;;5.63;2.03;;;21.70;74.20;;;;;;4980040;28;20023;-86
2022/05/07 11:58:23;;;;;;;7.50;2.50;;;21.70;73.90;;;;;;4977172;28;20511;-88
2022/05/07 12:00:55;;;;;;;7.00;2.45;;;21.70;73.10;;;;;;4977254;28;20145;-87
2022/05/07 12:03:28;;;;;;;7.65;2.70;;;21.50;72.40;;;;;;4970703;28;20031;-87
2022/05/07 12:05:56;;;;;;;5.65;2.33;;;21.40;72.50;;;;;;4975440;28;20098;-87
2022/05/07 12:08:31;;;;;;;5.57;2.42;;;21.50;72.50;;;;;;4970141;28;20492;-88
2022/05/07 12:10:57;;;;;;;5.47;2.25;;;21.70;72.50;;;;;;4975707;28;20035;-89
2022/05/07 12:13:24;;;;;;;6.40;2.63;;;21.80;71.80;;;;;;4954642;28;20401;-87
2022/05/07 12:18:37;;;;;;;5.72;2.50;;;21.60;70.70;;;;;;4972858;28;20119;-87
2022/05/07 12:21:03;;;;;;;9.52;2.45;;;21.50;71.00;;;;;;4969944;28;20124;-89
2022/05/07 12:31:46;;;;;;;8.18;3.22;;;20.90;71.70;;;;;;4974214;28;20069;-88
2022/05/07 12:34:12;;;;;;;6.35;2.85;;;20.90;72.10;;;;;;4953510;28;20058;-88
2022/05/07 12:36:38;;;;;;;7.18;3.33;;;21.00;72.20;;;;;;4953175;28;20547;-88
2022/05/07 12:39:04;;;;;;;6.03;2.58;;;21.00;71.90;;;;;;4972639;28;20041;-87
2022/05/07 12:41:31;;;;;;;10.57;2.80;;;21.10;71.70;;;;;;4976329;28;20030;-89
2022/05/07 12:43:58;;;;;;;10.63;3.05;;;21.10;71.50;;;;;;4976157;28;20124;-90
2022/05/07 12:46:27;;;;;;;9.00;3.38;;;21.20;71.70;;;;;;4965621;28;20035;-87
2022/05/07 12:48:56;;;;;;;8.98;3.03;;;21.20;71.40;;;;;;4987970;28;20117;-89
2022/05/07 12:51:25;;;;;;;5.22;2.45;;;21.20;71.30;;;;;;4964271;28;20026;-88
2022/05/07 12:53:51;;;;;;;6.32;3.38;;;21.30;71.50;;;;;;4963694;28;20030;-88
2022/05/07 12:56:18;;;;;;;9.23;2.65;;;21.20;70.80;;;;;;4964525;28;20030;-89
2022/05/07 12:58:47;;;;;;;7.85;2.70;;;21.10;70.20;;;;;;4966724;28;20035;-90
2022/05/07 13:01:13;;;;;;;6.10;2.80;;;21.00;70.10;;;;;;4966141;28;20503;-88
2022/05/07 13:03:38;;;;;;;4.80;2.17;;;20.90;70.20;;;;;;4966566;28;20111;-90
2022/05/07 13:06:04;;;;;;;10.02;2.58;;;20.80;70.40;;;;;;4963687;28;20066;-90
2022/05/07 13:08:33;;;;;;;10.63;3.30;;;20.70;70.50;;;;;;4962973;28;20102;-90
2022/05/07 13:10:59;;;;;;;6.68;2.63;;;20.70;70.80;;;;;;4963087;28;20023;-88
2022/05/07 13:13:25;;;;;;;8.15;3.50;;;20.70;70.90;;;;;;4963732;28;20539;-90
2022/05/07 13:15:51;;;;;;;8.35;2.75;;;20.70;70.60;;;;;;4963469;28;20054;-88
2022/05/07 13:18:17;;;;;;;6.75;2.90;;;20.90;70.90;;;;;;4986237;28;20046;-89
2022/05/07 13:20:44;;;;;;;6.50;2.35;;;21.20;70.40;;;;;;4981523;28;20065;-89
2022/05/07 13:23:12;;;;;;;4.63;1.98;;;21.50;69.60;;;;;;4954817;28;20043;-88
2022/05/07 13:25:42;;;;;;;9.32;3.70;;;21.90;68.80;;;;;;4939571;29;20039;-88
2022/05/07 13:28:10;;;;;;;7.63;3.60;;;22.00;67.70;;;;;;4935726;29;20025;-89
2022/05/07 13:30:36;;;;;;;7.90;2.83;;;22.00;67.50;;;;;;4935865;29;20031;-88
2022/05/07 13:33:02;;;;;;;7.25;2.97;;;21.80;67.90;;;;;;4936418;29;20366;-90
2022/05/07 13:35:30;;;;;;;8.57;3.47;;;21.60;68.40;;;;;;4937185;28;20485;-89
2022/05/07 13:37:56;;;;;;;10.85;3.63;;;21.30;68.80;;;;;;4964091;28;20033;-87